sensor_id;sensor_type;location;lat;lon;timestamp;pressure;altitude;pressure_sealevel;temperature;humidity
70437;BME280;57877;39.750;-104.894;2022-12-26T00:01:06;83855.20;;;6.36;27.77
70437;BME280;57877;39.750;-104.894;2022-12-26T00:03:26;83851.40;;;6.54;27.30
70437;BME280;57877;39.750;-104.894;2022-12-26T00:05:51;83842.73;;;6.45;26.83
70437;BME280;57877;39.750;-104.894;2022-12-26T00:08:16;83836.70;;;5.84;27.72
70437;BME280;57877;39.750;-104.894;2022-12-26T00:10:41;83833.20;;;6.79;26.59
70437;BME280;57877;39.750;-104.894;2022-12-26T00:13:07;83834.68;;;6.62;26.82
70437;BME280;57877;39.750;-104.894;2022-12-26T00:15:31;83853.62;;;6.52;27.39
70437;BME280;57877;39.750;-104.894;2022-12-26T00:17:57;83860.91;;;6.71;26.72
70437;BME280;57877;39.750;-104.894;2022-12-26T00:20:22;83859.86;;;7.09;26.73
70437;BME280;57877;39.750;-104.894;2022-12-26T00:22:47;83863.86;;;7.20;26.65
70437;BME280;57877;39.750;-104.894;2022-12-26T00:25:12;83877.05;;;7.28;26.18
70437;BME280;57877;39.750;-104.894;2022-12-26T00:30:04;83886.14;;;7.73;25.63
70437;BME280;57877;39.750;-104.894;2022-12-26T00:32:28;83886.36;;;8.14;25.30
70437;BME280;57877;39.750;-104.894;2022-12-26T00:37:18;83890.94;;;7.80;25.29
70437;BME280;57877;39.750;-104.894;2022-12-26T00:39:43;83886.40;;;8.24;24.95
70437;BME280;57877;39.750;-104.894;2022-12-26T00:46:58;83880.74;;;8.01;24.49
70437;BME280;57877;39.750;-104.894;2022-12-26T00:49:24;83888.60;;;8.19;25.15
70437;BME280;57877;39.750;-104.894;2022-12-26T00:51:48;83888.85;;;8.22;24.79
70437;BME280;57877;39.750;-104.894;2022-12-26T00:56:39;83886.27;;;7.91;25.58
70437;BME280;57877;39.750;-104.894;2022-12-26T00:59:04;83895.58;;;7.54;26.20
70437;BME280;57877;39.750;-104.894;2022-12-26T01:01:29;83899.09;;;7.61;25.55
70437;BME280;57877;39.750;-104.894;2022-12-26T01:03:54;83905.81;;;7.81;26.41
70437;BME280;57877;39.750;-104.894;2022-12-26T01:06:19;83911.85;;;7.29;26.83
70437;BME280;57877;39.750;-104.894;2022-12-26T01:08:44;83916.92;;;7.39;26.24
70437;BME280;57877;39.750;-104.894;2022-12-26T01:11:11;83910.40;;;6.70;27.80
70437;BME280;57877;39.750;-104.894;2022-12-26T01:13:34;83909.21;;;6.93;27.55
70437;BME280;57877;39.750;-104.894;2022-12-26T01:15:59;83921.44;;;6.56;28.35
70437;BME280;57877;39.750;-104.894;2022-12-26T01:18:24;83940.63;;;6.53;28.07
70437;BME280;57877;39.750;-104.894;2022-12-26T01:20:50;83940.79;;;5.54;30.05
70437;BME280;57877;39.750;-104.894;2022-12-26T01:23:15;83938.40;;;6.15;29.16
70437;BME280;57877;39.750;-104.894;2022-12-26T01:25:40;83953.54;;;6.18;29.47
70437;BME280;57877;39.750;-104.894;2022-12-26T01:28:05;83963.86;;;5.23;30.22
70437;BME280;57877;39.750;-104.894;2022-12-26T01:30:30;83973.07;;;4.78;31.47
70437;BME280;57877;39.750;-104.894;2022-12-26T01:32:56;83966.31;;;4.89;32.27
70437;BME280;57877;39.750;-104.894;2022-12-26T01:35:21;83969.80;;;5.15;29.96
70437;BME280;57877;39.750;-104.894;2022-12-26T01:37:45;83962.95;;;4.93;30.86
70437;BME280;57877;39.750;-104.894;2022-12-26T01:40:11;83970.31;;;5.26;29.94
70437;BME280;57877;39.750;-104.894;2022-12-26T01:42:38;83973.22;;;5.38;30.33
70437;BME280;57877;39.750;-104.894;2022-12-26T01:45:05;83971.69;;;5.39;30.35
70437;BME280;57877;39.750;-104.894;2022-12-26T01:47:36;83981.06;;;5.68;29.34
70437;BME280;57877;39.750;-104.894;2022-12-26T01:49:53;83983.47;;;5.93;29.25
70437;BME280;57877;39.750;-104.894;2022-12-26T01:52:19;83978.75;;;5.92;28.66
70437;BME280;57877;39.750;-104.894;2022-12-26T01:54:43;83982.41;;;5.62;28.88
70437;BME280;57877;39.750;-104.894;2022-12-26T01:57:10;83989.58;;;5.04;30.22
70437;BME280;57877;39.750;-104.894;2022-12-26T01:59:35;83994.34;;;5.02;29.78
70437;BME280;57877;39.750;-104.894;2022-12-26T02:01:58;83996.76;;;4.97;30.37
70437;BME280;57877;39.750;-104.894;2022-12-26T02:04:25;83998.37;;;4.51;30.79
70437;BME280;57877;39.750;-104.894;2022-12-26T02:06:46;84004.36;;;5.23;29.99
70437;BME280;57877;39.750;-104.894;2022-12-26T02:09:11;83999.45;;;4.65;30.59
70437;BME280;57877;39.750;-104.894;2022-12-26T02:11:40;84000.84;;;5.17;29.87
70437;BME280;57877;39.750;-104.894;2022-12-26T02:14:02;84003.47;;;5.27;29.88
70437;BME280;57877;39.750;-104.894;2022-12-26T02:16:27;84004.35;;;4.54;30.31
70437;BME280;57877;39.750;-104.894;2022-12-26T02:18:52;84006.09;;;4.88;30.05
70437;BME280;57877;39.750;-104.894;2022-12-26T02:23:52;84010.67;;;5.41;29.98
70437;BME280;57877;39.750;-104.894;2022-12-26T02:26:20;84010.57;;;4.87;30.15
70437;BME280;57877;39.750;-104.894;2022-12-26T02:31:02;84017.82;;;4.84;29.98
70437;BME280;57877;39.750;-104.894;2022-12-26T02:33:31;84024.50;;;4.72;30.65
70437;BME280;57877;39.750;-104.894;2022-12-26T02:35:58;84027.39;;;4.53;30.98
70437;BME280;57877;39.750;-104.894;2022-12-26T02:38:21;84021.33;;;5.49;30.06
70437;BME280;57877;39.750;-104.894;2022-12-26T02:40:47;84021.87;;;4.58;30.47
70437;BME280;57877;39.750;-104.894;2022-12-26T02:43:10;84016.71;;;4.89;30.09
70437;BME280;57877;39.750;-104.894;2022-12-26T02:45:34;84022.56;;;4.92;30.17
70437;BME280;57877;39.750;-104.894;2022-12-26T02:47:56;84035.19;;;4.38;31.10
70437;BME280;57877;39.750;-104.894;2022-12-26T02:50:23;84024.79;;;4.39;32.04
70437;BME280;57877;39.750;-104.894;2022-12-26T02:52:50;84028.94;;;4.85;30.87
70437;BME280;57877;39.750;-104.894;2022-12-26T02:55:13;84036.50;;;4.88;30.74
70437;BME280;57877;39.750;-104.894;2022-12-26T02:57:45;84031.85;;;4.98;31.03
70437;BME280;57877;39.750;-104.894;2022-12-26T03:00:02;84025.33;;;5.35;30.40
70437;BME280;57877;39.750;-104.894;2022-12-26T03:02:29;84025.03;;;5.16;29.94
70437;BME280;57877;39.750;-104.894;2022-12-26T03:04:51;84031.79;;;4.76;30.45
70437;BME280;57877;39.750;-104.894;2022-12-26T03:07:17;84018.26;;;5.33;29.95
70437;BME280;57877;39.750;-104.894;2022-12-26T03:09:41;84012.36;;;5.27;29.96
70437;BME280;57877;39.750;-104.894;2022-12-26T03:12:09;84001.34;;;4.10;31.43
70437;BME280;57877;39.750;-104.894;2022-12-26T03:14:34;84010.43;;;5.08;30.10
70437;BME280;57877;39.750;-104.894;2022-12-26T03:16:57;84014.21;;;4.86;30.75
70437;BME280;57877;39.750;-104.894;2022-12-26T03:19:20;84019.95;;;4.59;30.57
70437;BME280;57877;39.750;-104.894;2022-12-26T03:21:45;84028.86;;;4.45;30.69
70437;BME280;57877;39.750;-104.894;2022-12-26T03:24:11;84042.01;;;4.56;30.96
70437;BME280;57877;39.750;-104.894;2022-12-26T03:26:38;84040.55;;;4.97;30.60
70437;BME280;57877;39.750;-104.894;2022-12-26T03:28:59;84037.52;;;4.63;31.00
70437;BME280;57877;39.750;-104.894;2022-12-26T03:31:24;84028.52;;;5.46;30.23
70437;BME280;57877;39.750;-104.894;2022-12-26T03:33:49;84035.65;;;5.41;29.54
70437;BME280;57877;39.750;-104.894;2022-12-26T03:36:20;84039.06;;;5.92;29.42
70437;BME280;57877;39.750;-104.894;2022-12-26T03:38:46;84041.74;;;4.59;30.31
70437;BME280;57877;39.750;-104.894;2022-12-26T03:41:11;84043.16;;;5.12;30.14
70437;BME280;57877;39.750;-104.894;2022-12-26T03:43:45;84046.93;;;5.52;29.49
70437;BME280;57877;39.750;-104.894;2022-12-26T03:46:02;84045.89;;;5.32;30.24
70437;BME280;57877;39.750;-104.894;2022-12-26T03:48:27;84047.33;;;5.60;29.98
70437;BME280;57877;39.750;-104.894;2022-12-26T03:50:48;84044.74;;;5.85;29.46
70437;BME280;57877;39.750;-104.894;2022-12-26T03:53:15;84040.57;;;5.93;28.84
70437;BME280;57877;39.750;-104.894;2022-12-26T03:55:40;84037.89;;;5.71;29.00
70437;BME280;57877;39.750;-104.894;2022-12-26T03:58:05;84039.76;;;5.51;29.13
70437;BME280;57877;39.750;-104.894;2022-12-26T04:00:27;84037.52;;;5.29;29.37
70437;BME280;57877;39.750;-104.894;2022-12-26T04:02:52;84034.86;;;6.11;28.72
70437;BME280;57877;39.750;-104.894;2022-12-26T04:05:17;84034.54;;;6.32;28.44
70437;BME280;57877;39.750;-104.894;2022-12-26T04:07:42;84039.18;;;5.90;28.56
70437;BME280;57877;39.750;-104.894;2022-12-26T04:10:08;84045.53;;;5.77;28.96
70437;BME280;57877;39.750;-104.894;2022-12-26T04:12:32;84045.33;;;6.19;28.66
70437;BME280;57877;39.750;-104.894;2022-12-26T04:15:00;84047.07;;;6.16;28.33
70437;BME280;57877;39.750;-104.894;2022-12-26T04:17:26;84042.80;;;6.43;27.71
70437;BME280;57877;39.750;-104.894;2022-12-26T04:19:56;84045.74;;;6.31;28.03
70437;BME280;57877;39.750;-104.894;2022-12-26T04:22:16;84044.42;;;6.64;27.71
70437;BME280;57877;39.750;-104.894;2022-12-26T04:24:39;84047.63;;;6.05;28.05
70437;BME280;57877;39.750;-104.894;2022-12-26T04:27:03;84038.66;;;6.59;27.87
70437;BME280;57877;39.750;-104.894;2022-12-26T04:29:26;84042.64;;;6.36;28.03
70437;BME280;57877;39.750;-104.894;2022-12-26T04:31:55;84037.08;;;6.34;28.41
70437;BME280;57877;39.750;-104.894;2022-12-26T04:34:21;84029.33;;;5.86;28.39
70437;BME280;57877;39.750;-104.894;2022-12-26T04:36:48;84027.37;;;6.03;28.57
70437;BME280;57877;39.750;-104.894;2022-12-26T04:39:09;84023.30;;;5.61;28.89
70437;BME280;57877;39.750;-104.894;2022-12-26T04:41:33;84026.05;;;5.88;28.51
70437;BME280;57877;39.750;-104.894;2022-12-26T04:43:57;84024.89;;;6.21;28.53
70437;BME280;57877;39.750;-104.894;2022-12-26T04:46:22;84028.26;;;5.92;28.88
70437;BME280;57877;39.750;-104.894;2022-12-26T04:48:48;84026.75;;;6.07;28.99
70437;BME280;57877;39.750;-104.894;2022-12-26T04:51:11;84023.54;;;5.43;29.26
70437;BME280;57877;39.750;-104.894;2022-12-26T04:53:37;84020.23;;;5.92;29.05
70437;BME280;57877;39.750;-104.894;2022-12-26T04:56:01;84016.39;;;5.72;29.56
70437;BME280;57877;39.750;-104.894;2022-12-26T04:58:27;84021.71;;;5.06;29.70
70437;BME280;57877;39.750;-104.894;2022-12-26T05:00:52;84021.59;;;5.26;30.03
70437;BME280;57877;39.750;-104.894;2022-12-26T05:03:17;84020.03;;;4.61;30.68
70437;BME280;57877;39.750;-104.894;2022-12-26T05:05:43;84018.42;;;4.93;30.21
70437;BME280;57877;39.750;-104.894;2022-12-26T05:08:16;84019.16;;;5.37;30.18
70437;BME280;57877;39.750;-104.894;2022-12-26T05:10:32;84029.22;;;4.98;30.61
70437;BME280;57877;39.750;-104.894;2022-12-26T05:12:57;84035.85;;;4.82;30.82
70437;BME280;57877;39.750;-104.894;2022-12-26T05:15:22;84038.04;;;4.43;31.93
70437;BME280;57877;39.750;-104.894;2022-12-26T05:17:47;84044.37;;;5.09;31.92
70437;BME280;57877;39.750;-104.894;2022-12-26T05:20:12;84056.14;;;4.81;31.76
70437;BME280;57877;39.750;-104.894;2022-12-26T05:22:39;84062.96;;;5.12;31.40
70437;BME280;57877;39.750;-104.894;2022-12-26T05:25:02;84074.02;;;4.82;31.35
70437;BME280;57877;39.750;-104.894;2022-12-26T05:27:32;84081.44;;;5.42;30.94
70437;BME280;57877;39.750;-104.894;2022-12-26T05:29:52;84087.91;;;5.56;30.50
70437;BME280;57877;39.750;-104.894;2022-12-26T05:32:17;84097.07;;;5.09;30.83
70437;BME280;57877;39.750;-104.894;2022-12-26T05:34:43;84102.59;;;3.86;32.69
70437;BME280;57877;39.750;-104.894;2022-12-26T05:37:08;84103.92;;;3.16;35.42
70437;BME280;57877;39.750;-104.894;2022-12-26T05:39:33;84117.54;;;2.53;38.55
70437;BME280;57877;39.750;-104.894;2022-12-26T05:41:58;84119.12;;;1.48;41.80
70437;BME280;57877;39.750;-104.894;2022-12-26T05:44:23;84131.17;;;1.77;41.81
70437;BME280;57877;39.750;-104.894;2022-12-26T05:46:48;84138.42;;;2.13;41.61
70437;BME280;57877;39.750;-104.894;2022-12-26T05:51:38;84142.16;;;1.71;43.35
70437;BME280;57877;39.750;-104.894;2022-12-26T05:54:04;84155.18;;;1.65;43.37
70437;BME280;57877;39.750;-104.894;2022-12-26T05:56:29;84159.29;;;1.55;44.44
70437;BME280;57877;39.750;-104.894;2022-12-26T05:58:55;84164.96;;;1.56;44.47
70437;BME280;57877;39.750;-104.894;2022-12-26T06:01:20;84161.01;;;1.51;44.28
70437;BME280;57877;39.750;-104.894;2022-12-26T06:03:46;84149.25;;;1.40;45.13
70437;BME280;57877;39.750;-104.894;2022-12-26T06:06:10;84150.03;;;1.46;44.93
70437;BME280;57877;39.750;-104.894;2022-12-26T06:08:34;84145.82;;;1.42;45.45
70437;BME280;57877;39.750;-104.894;2022-12-26T06:11:03;84147.59;;;1.02;45.63
70437;BME280;57877;39.750;-104.894;2022-12-26T06:13:25;84147.16;;;0.81;46.52
70437;BME280;57877;39.750;-104.894;2022-12-26T06:15:50;84143.26;;;1.04;46.59
70437;BME280;57877;39.750;-104.894;2022-12-26T06:18:15;84142.99;;;1.08;45.83
70437;BME280;57877;39.750;-104.894;2022-12-26T06:20:40;84147.76;;;1.43;45.86
70437;BME280;57877;39.750;-104.894;2022-12-26T06:23:05;84139.04;;;1.24;46.04
70437;BME280;57877;39.750;-104.894;2022-12-26T06:25:31;84137.47;;;1.59;44.26
70437;BME280;57877;39.750;-104.894;2022-12-26T06:27:55;84143.88;;;1.98;43.76
70437;BME280;57877;39.750;-104.894;2022-12-26T06:30:20;84144.59;;;1.77;43.45
70437;BME280;57877;39.750;-104.894;2022-12-26T06:32:45;84146.82;;;1.81;43.82
70437;BME280;57877;39.750;-104.894;2022-12-26T06:35:10;84148.77;;;2.14;43.00
70437;BME280;57877;39.750;-104.894;2022-12-26T06:37:36;84149.68;;;1.81;43.55
70437;BME280;57877;39.750;-104.894;2022-12-26T06:40:01;84149.45;;;1.97;43.94
70437;BME280;57877;39.750;-104.894;2022-12-26T06:42:26;84149.93;;;1.70;44.34
70437;BME280;57877;39.750;-104.894;2022-12-26T06:44:51;84152.19;;;1.57;44.82
70437;BME280;57877;39.750;-104.894;2022-12-26T06:47:16;84152.61;;;1.19;46.09
70437;BME280;57877;39.750;-104.894;2022-12-26T06:49:41;84161.73;;;1.06;47.10
70437;BME280;57877;39.750;-104.894;2022-12-26T06:52:07;84161.78;;;0.66;47.81
70437;BME280;57877;39.750;-104.894;2022-12-26T06:54:32;84160.26;;;1.44;46.75
70437;BME280;57877;39.750;-104.894;2022-12-26T06:56:57;84162.46;;;1.38;45.82
70437;BME280;57877;39.750;-104.894;2022-12-26T06:59:22;84163.24;;;1.50;45.51
70437;BME280;57877;39.750;-104.894;2022-12-26T07:01:47;84187.47;;;1.75;44.21
70437;BME280;57877;39.750;-104.894;2022-12-26T07:04:12;84185.07;;;1.71;44.67
70437;BME280;57877;39.750;-104.894;2022-12-26T07:06:37;84172.07;;;2.17;43.40
70437;BME280;57877;39.750;-104.894;2022-12-26T07:09:05;84160.09;;;2.24;43.28
70437;BME280;57877;39.750;-104.894;2022-12-26T07:11:29;84154.81;;;1.94;43.26
70437;BME280;57877;39.750;-104.894;2022-12-26T07:13:53;84165.28;;;2.48;42.81
70437;BME280;57877;39.750;-104.894;2022-12-26T07:16:18;84150.73;;;2.01;43.32
70437;BME280;57877;39.750;-104.894;2022-12-26T07:18:43;84138.94;;;0.98;45.24
70437;BME280;57877;39.750;-104.894;2022-12-26T07:21:13;84143.86;;;1.48;45.55
70437;BME280;57877;39.750;-104.894;2022-12-26T07:23:33;84161.36;;;1.72;44.12
70437;BME280;57877;39.750;-104.894;2022-12-26T07:25:58;84167.85;;;2.06;44.29
70437;BME280;57877;39.750;-104.894;2022-12-26T07:28:23;84163.15;;;1.61;44.18
70437;BME280;57877;39.750;-104.894;2022-12-26T07:30:49;84156.59;;;1.96;43.51
70437;BME280;57877;39.750;-104.894;2022-12-26T07:33:14;84142.05;;;1.67;44.10
70437;BME280;57877;39.750;-104.894;2022-12-26T07:35:39;84134.50;;;1.89;43.46
70437;BME280;57877;39.750;-104.894;2022-12-26T07:38:04;84132.72;;;2.07;42.69
70437;BME280;57877;39.750;-104.894;2022-12-26T07:40:29;84132.43;;;2.13;42.94
70437;BME280;57877;39.750;-104.894;2022-12-26T07:42:54;84125.01;;;2.17;42.61
70437;BME280;57877;39.750;-104.894;2022-12-26T07:45:19;84127.12;;;1.24;44.67
70437;BME280;57877;39.750;-104.894;2022-12-26T07:47:44;84132.75;;;2.19;43.16
70437;BME280;57877;39.750;-104.894;2022-12-26T07:50:10;84133.92;;;2.06;43.20
70437;BME280;57877;39.750;-104.894;2022-12-26T07:52:34;84132.43;;;1.95;43.14
70437;BME280;57877;39.750;-104.894;2022-12-26T07:55:00;84127.63;;;2.02;43.29
70437;BME280;57877;39.750;-104.894;2022-12-26T07:57:25;84134.63;;;2.10;42.54
70437;BME280;57877;39.750;-104.894;2022-12-26T07:59:50;84156.54;;;2.26;42.85
70437;BME280;57877;39.750;-104.894;2022-12-26T08:02:15;84159.41;;;2.15;42.87
70437;BME280;57877;39.750;-104.894;2022-12-26T08:04:40;84156.29;;;1.78;43.55
70437;BME280;57877;39.750;-104.894;2022-12-26T08:07:05;84166.35;;;1.99;43.06
70437;BME280;57877;39.750;-104.894;2022-12-26T08:09:30;84165.62;;;1.71;43.01
70437;BME280;57877;39.750;-104.894;2022-12-26T08:11:55;84184.08;;;2.17;42.22
70437;BME280;57877;39.750;-104.894;2022-12-26T08:14:21;84195.45;;;2.60;41.92
70437;BME280;57877;39.750;-104.894;2022-12-26T08:16:46;84192.80;;;2.31;41.89
70437;BME280;57877;39.750;-104.894;2022-12-26T08:19:11;84184.09;;;2.23;42.57
70437;BME280;57877;39.750;-104.894;2022-12-26T08:21:36;84172.95;;;1.68;43.33
70437;BME280;57877;39.750;-104.894;2022-12-26T08:24:01;84197.73;;;2.26;42.26
70437;BME280;57877;39.750;-104.894;2022-12-26T08:26:26;84206.03;;;2.04;41.86
70437;BME280;57877;39.750;-104.894;2022-12-26T08:28:53;84194.19;;;2.33;41.42
70437;BME280;57877;39.750;-104.894;2022-12-26T08:31:17;84184.55;;;1.90;42.37
70437;BME280;57877;39.750;-104.894;2022-12-26T08:33:42;84196.44;;;2.17;42.50
70437;BME280;57877;39.750;-104.894;2022-12-26T08:36:09;84206.92;;;2.34;41.58
70437;BME280;57877;39.750;-104.894;2022-12-26T08:38:32;84204.50;;;2.12;41.79
70437;BME280;57877;39.750;-104.894;2022-12-26T08:40:57;84200.31;;;2.19;41.68
70437;BME280;57877;39.750;-104.894;2022-12-26T08:43:22;84208.41;;;2.61;41.35
70437;BME280;57877;39.750;-104.894;2022-12-26T08:48:12;84224.01;;;2.82;40.52
70437;BME280;57877;39.750;-104.894;2022-12-26T08:50:37;84228.97;;;2.76;40.43
70437;BME280;57877;39.750;-104.894;2022-12-26T08:53:02;84239.83;;;2.59;40.45
70437;BME280;57877;39.750;-104.894;2022-12-26T08:55:28;84236.81;;;2.63;40.39
70437;BME280;57877;39.750;-104.894;2022-12-26T08:57:53;84234.89;;;2.26;40.52
70437;BME280;57877;39.750;-104.894;2022-12-26T09:00:18;84240.87;;;2.60;40.23
70437;BME280;57877;39.750;-104.894;2022-12-26T09:02:43;84238.74;;;2.31;40.69
70437;BME280;57877;39.750;-104.894;2022-12-26T09:05:08;84244.60;;;2.36;40.37
70437;BME280;57877;39.750;-104.894;2022-12-26T09:07:33;84256.04;;;2.41;39.95
70437;BME280;57877;39.750;-104.894;2022-12-26T09:09:58;84258.95;;;2.68;39.85
70437;BME280;57877;39.750;-104.894;2022-12-26T09:12:24;84253.67;;;2.73;39.91
70437;BME280;57877;39.750;-104.894;2022-12-26T09:14:49;84253.36;;;2.61;39.63
70437;BME280;57877;39.750;-104.894;2022-12-26T09:17:14;84260.59;;;2.63;39.40
70437;BME280;57877;39.750;-104.894;2022-12-26T09:19:39;84256.70;;;2.43;40.25
70437;BME280;57877;39.750;-104.894;2022-12-26T09:22:04;84256.11;;;2.18;40.79
70437;BME280;57877;39.750;-104.894;2022-12-26T09:24:29;84270.52;;;2.24;40.43
70437;BME280;57877;39.750;-104.894;2022-12-26T09:26:54;84258.18;;;2.42;40.87
70437;BME280;57877;39.750;-104.894;2022-12-26T09:29:19;84267.01;;;2.02;41.47
70437;BME280;57877;39.750;-104.894;2022-12-26T09:31:45;84270.36;;;1.55;42.29
70437;BME280;57877;39.750;-104.894;2022-12-26T09:34:10;84276.16;;;1.72;41.67
70437;BME280;57877;39.750;-104.894;2022-12-26T09:36:36;84278.99;;;2.09;41.11
70437;BME280;57877;39.750;-104.894;2022-12-26T09:39:00;84276.48;;;2.41;40.64
70437;BME280;57877;39.750;-104.894;2022-12-26T09:41:38;84281.38;;;2.12;40.53
70437;BME280;57877;39.750;-104.894;2022-12-26T09:43:58;84286.69;;;2.04;40.55
70437;BME280;57877;39.750;-104.894;2022-12-26T09:46:21;84288.86;;;2.30;40.53
70437;BME280;57877;39.750;-104.894;2022-12-26T09:48:45;84296.28;;;2.21;40.29
70437;BME280;57877;39.750;-104.894;2022-12-26T09:51:09;84286.01;;;2.22;39.89
70437;BME280;57877;39.750;-104.894;2022-12-26T09:53:34;84281.35;;;2.31;39.87
70437;BME280;57877;39.750;-104.894;2022-12-26T09:55:58;84295.88;;;2.22;39.69
70437;BME280;57877;39.750;-104.894;2022-12-26T10:00:51;84297.45;;;2.26;39.64
70437;BME280;57877;39.750;-104.894;2022-12-26T10:03:11;84301.66;;;2.03;39.82
70437;BME280;57877;39.750;-104.894;2022-12-26T10:05:40;84307.76;;;1.99;40.02
70437;BME280;57877;39.750;-104.894;2022-12-26T10:08:11;84310.14;;;2.01;40.07
70437;BME280;57877;39.750;-104.894;2022-12-26T10:10:31;84300.39;;;1.88;40.29
70437;BME280;57877;39.750;-104.894;2022-12-26T10:12:57;84296.91;;;1.15;42.74
70437;BME280;57877;39.750;-104.894;2022-12-26T10:15:29;84290.03;;;1.52;42.07
70437;BME280;57877;39.750;-104.894;2022-12-26T10:17:48;84288.36;;;1.80;41.28
70437;BME280;57877;39.750;-104.894;2022-12-26T10:20:18;84290.24;;;1.95;41.10
70437;BME280;57877;39.750;-104.894;2022-12-26T10:25:00;84288.90;;;2.23;40.61
70437;BME280;57877;39.750;-104.894;2022-12-26T10:27:25;84289.94;;;2.32;40.65
70437;BME280;57877;39.750;-104.894;2022-12-26T10:29:51;84292.24;;;1.87;40.51
70437;BME280;57877;39.750;-104.894;2022-12-26T10:32:15;84299.16;;;2.20;40.55
70437;BME280;57877;39.750;-104.894;2022-12-26T10:34:41;84296.52;;;1.74;41.17
70437;BME280;57877;39.750;-104.894;2022-12-26T10:37:09;84298.53;;;2.21;40.84
70437;BME280;57877;39.750;-104.894;2022-12-26T10:39:32;84301.23;;;2.18;40.69
70437;BME280;57877;39.750;-104.894;2022-12-26T10:41:57;84294.44;;;1.95;40.54
70437;BME280;57877;39.750;-104.894;2022-12-26T10:44:19;84296.52;;;1.88;41.21
70437;BME280;57877;39.750;-104.894;2022-12-26T10:46:55;84307.01;;;1.54;40.97
70437;BME280;57877;39.750;-104.894;2022-12-26T10:49:10;84308.35;;;1.67;40.85
70437;BME280;57877;39.750;-104.894;2022-12-26T10:51:34;84309.05;;;1.66;40.84
70437;BME280;57877;39.750;-104.894;2022-12-26T10:53:59;84312.05;;;1.83;41.32
70437;BME280;57877;39.750;-104.894;2022-12-26T10:56:25;84307.06;;;1.55;41.64
70437;BME280;57877;39.750;-104.894;2022-12-26T10:58:59;84313.91;;;1.88;41.57
70437;BME280;57877;39.750;-104.894;2022-12-26T11:03:52;84339.68;;;1.68;41.41
70437;BME280;57877;39.750;-104.894;2022-12-26T11:06:05;84337.75;;;0.96;42.33
70437;BME280;57877;39.750;-104.894;2022-12-26T11:08:34;84333.86;;;1.57;42.29
70437;BME280;57877;39.750;-104.894;2022-12-26T11:11:01;84328.37;;;1.49;42.41
70437;BME280;57877;39.750;-104.894;2022-12-26T11:13:21;84326.97;;;1.33;42.83
70437;BME280;57877;39.750;-104.894;2022-12-26T11:15:48;84328.58;;;1.46;42.84
70437;BME280;57877;39.750;-104.894;2022-12-26T11:18:19;84328.47;;;1.41;42.97
70437;BME280;57877;39.750;-104.894;2022-12-26T11:20:35;84330.59;;;1.91;42.65
70437;BME280;57877;39.750;-104.894;2022-12-26T11:25:26;84327.18;;;1.45;41.89
70437;BME280;57877;39.750;-104.894;2022-12-26T11:27:52;84335.81;;;1.28;42.75
70437;BME280;57877;39.750;-104.894;2022-12-26T11:30:25;84336.52;;;1.03;43.20
70437;BME280;57877;39.750;-104.894;2022-12-26T11:32:41;84347.75;;;1.10;44.02
70437;BME280;57877;39.750;-104.894;2022-12-26T11:37:37;84363.16;;;1.23;43.51
70437;BME280;57877;39.750;-104.894;2022-12-26T11:39:56;84367.00;;;1.25;43.48
70437;BME280;57877;39.750;-104.894;2022-12-26T11:42:22;84360.27;;;1.21;43.47
70437;BME280;57877;39.750;-104.894;2022-12-26T11:44:49;84342.98;;;1.03;43.33
70437;BME280;57877;39.750;-104.894;2022-12-26T11:47:13;84348.06;;;1.06;43.52
70437;BME280;57877;39.750;-104.894;2022-12-26T11:49:38;84355.93;;;1.21;43.15
70437;BME280;57877;39.750;-104.894;2022-12-26T11:54:32;84359.82;;;1.04;42.67
70437;BME280;57877;39.750;-104.894;2022-12-26T11:59:20;84365.19;;;0.44;43.34
70437;BME280;57877;39.750;-104.894;2022-12-26T12:01:42;84362.65;;;0.64;42.91
70437;BME280;57877;39.750;-104.894;2022-12-26T12:04:07;84369.10;;;0.31;42.99
70437;BME280;57877;39.750;-104.894;2022-12-26T12:06:42;84368.77;;;0.04;43.20
70437;BME280;57877;39.750;-104.894;2022-12-26T12:09:04;84374.76;;;0.33;42.59
70437;BME280;57877;39.750;-104.894;2022-12-26T12:11:30;84375.82;;;0.26;42.17
70437;BME280;57877;39.750;-104.894;2022-12-26T12:13:59;84382.67;;;0.45;41.93
70437;BME280;57877;39.750;-104.894;2022-12-26T12:16:26;84390.40;;;0.60;42.05
70437;BME280;57877;39.750;-104.894;2022-12-26T12:18:47;84390.35;;;0.46;41.44
70437;BME280;57877;39.750;-104.894;2022-12-26T12:21:10;84388.06;;;0.65;41.59
70437;BME280;57877;39.750;-104.894;2022-12-26T12:23:43;84392.15;;;0.71;41.35
70437;BME280;57877;39.750;-104.894;2022-12-26T12:26:02;84390.01;;;-0.01;43.13
70437;BME280;57877;39.750;-104.894;2022-12-26T12:28:36;84389.68;;;-0.65;44.41
70437;BME280;57877;39.750;-104.894;2022-12-26T12:30:50;84386.97;;;-0.65;44.23
70437;BME280;57877;39.750;-104.894;2022-12-26T12:33:20;84380.85;;;-0.45;43.40
70437;BME280;57877;39.750;-104.894;2022-12-26T12:35:44;84374.21;;;-0.28;43.18
70437;BME280;57877;39.750;-104.894;2022-12-26T12:38:16;84372.55;;;-0.46;43.17
70437;BME280;57877;39.750;-104.894;2022-12-26T12:40:32;84374.65;;;-0.55;43.49
70437;BME280;57877;39.750;-104.894;2022-12-26T12:42:56;84379.37;;;-0.52;43.50
70437;BME280;57877;39.750;-104.894;2022-12-26T12:45:22;84380.95;;;-0.18;43.28
70437;BME280;57877;39.750;-104.894;2022-12-26T12:47:47;84382.52;;;-0.17;43.82
70437;BME280;57877;39.750;-104.894;2022-12-26T12:50:14;84385.41;;;-0.12;43.68
70437;BME280;57877;39.750;-104.894;2022-12-26T12:52:38;84388.55;;;-0.12;43.75
70437;BME280;57877;39.750;-104.894;2022-12-26T12:57:27;84374.01;;;0.03;43.38
70437;BME280;57877;39.750;-104.894;2022-12-26T12:59:55;84364.91;;;-0.03;43.32
70437;BME280;57877;39.750;-104.894;2022-12-26T13:02:17;84368.61;;;-0.14;43.23
70437;BME280;57877;39.750;-104.894;2022-12-26T13:04:40;84371.33;;;-0.16;44.04
70437;BME280;57877;39.750;-104.894;2022-12-26T13:07:05;84372.86;;;-0.54;45.56
70437;BME280;57877;39.750;-104.894;2022-12-26T13:09:31;84372.99;;;-0.82;46.60